Tiempo atmosférico en la estación meteorológica de Naut Aran, Arties, Lleida (1185 m.)



Fecha
DESCASC
Temp. máxima en grados centígrados (hora)
DESCASC
Temp. mínima en grados centígrados (hora)
DESCASC
Temp. media en grados centígrados
DESCASC
Racha de viento máxima en m/sg (hora)
DESCASC
Velocidad máxima media en intervalos de 10 minutos(hora)
DESCASC
Precipitaciones diarias en mm
DESCASC
Precipitaciones de 00:00 a 06:00 en mm
DESCASC
Precipitaciones de 06:00 a 12:00 en mm
DESCASC
Precipitaciones de 12:00 a 18:00 en mm
DESCASC
Precipitaciones de 18:00 a 24:00 en mm
DESCASC
28-02-2021 11.2 (14:30) -0.8 (04:40) 5.2 6.39 (17:10) 3.33 (17:10) 0 0 0 0 0
27-02-2021 14.6 (14:30) -1.1 (07:40) 6.8 6.67 (15:40) 2.22 (15:40) 0 0 0 0 0
26-02-2021 15.6 (13:50) 0.5 (06:30) 8.1 7.22 (14:40) 2.5 (14:40) 0 0 0 0 0
25-02-2021 18.3 (14:50) 2.3 (00:00) 10.3 5.83 (07:00) 2.78 (06:50) 0 0 0 0 0
24-02-2021 17.6 (13:50) 4.1 (00:00) 10.9 6.67 (13:30) 1.94 (03:30) 0 0 0 0 0
23-02-2021 14.6 (13:00) 3.8 (00:00) 9.2 10 (13:20) 3.61 (13:20) 0 0 0 0 0
22-02-2021 7.7 (06:30) 4.9 (00:00) 6.3 6.11 (07:40) 3.06 (07:40) 31.8 10.3 17.9 3.5 0.1
21-02-2021 16.1 (14:00) 7 (00:00) 11.6 18.89 (13:40) 7.5 (12:20) 2.5 0 0 0 2.5
20-02-2021 16.9 (13:30) 4.6 (00:00) 10.7 9.44 (13:00) 4.44 (23:40) 0 0 0 0 0
19-02-2021 16.5 (13:30) 4.5 (00:00) 10.5 7.5 (19:00) 3.61 (20:30) 0 0 0 0 0
18-02-2021 17.1 (14:10) 4.4 (00:00) 10.8 6.11 (06:30) 2.22 (21:20) 0 0 0 0 0
17-02-2021 15.6 (14:50) 0 (00:00) 7.8 7.22 (14:10) 3.06 (01:10) 0 0 0 0 0
16-02-2021 18.6 (13:00) 4.8 (00:00) 11.7 8.89 (12:30) 3.33 (02:30) 0 0 0 0 0
15-02-2021 17.3 (14:00) 2.1 (00:00) 9.7 6.94 (00:30) 2.22 (07:40) 0 0 0 0 0
14-02-2021 12.7 (15:20) -0.9 (-00:0) 5.9 8.33 (13:10) 3.89 (13:00) 0 0 0 0 0
13-02-2021 12.7 (14:00) 1.9 (00:00) 7.3 8.89 (00:10) 3.06 (00:10) 1.9 1.8 0.1 0 0
12-02-2021 11.7 (11:40) 1.9 (00:00) 6.8 10.28 (20:10) 3.61 (07:00) 14.6 0 0 6.2 8.4
11-02-2021 12.3 (14:50) -3 (-00:0) 4.7 4.17 (01:00) 2.5 (00:50) 0 0 0 0 0
10-02-2021 4.5 (14:10) -0.8 (-00:0) 1.8 4.72 (04:40) 2.22 (04:50) 1.1 0 0.1 0.9 0.1
09-02-2021 8.9 (13:50) -2.8 (-00:0) 3 6.11 (14:20) 2.78 (07:40) 1.1 0 0 0.3 0.8
08-02-2021 6.4 (13:00) -0.9 (-00:0) 2.8 6.11 (11:00) 3.33 (11:00) 5.8 0 0 5.7 0.1
07-02-2021 6.5 (14:00) -0.5 (-00:0) 3 4.72 (02:30) 1.67 (02:30) 1.1 1 0.1 0 0
06-02-2021 11.7 (12:50) 2.8 (00:00) 7.2 8.33 (10:30) 3.61 (07:30) 4.5 1.2 0.3 0.1 2.9
05-02-2021 17.7 (13:10) 6.4 (00:00) 12.1 10.83 (16:10) 3.33 (04:50) 0 0 0 0 0
04-02-2021 16.1 (14:10) 4.5 (00:00) 10.3 8.89 (22:40) 2.78 (19:50) 0 0 0 0 0
03-02-2021 17.3 (14:00) 4.2 (00:00) 10.7 6.39 (09:20) 3.61 (05:20) 0 0 0 0 0
02-02-2021 14.3 (14:00) 2.5 (00:00) 8.4 5.56 (23:10) 3.33 (23:10) 2 2 0 0 0
01-02-2021 8.5 (14:00) 2.2 (00:00) 5.4 9.17 (15:00) 2.5 (12:50) 17.7 8.1 2.5 2.2 4.9

Gráficas

Temp. máximas Temp. mínimas Temp. medias Precipitaciones Rachas de viento máximas Velocidades máximas media en intervalos de 10 minutos

Datos horarios

Fecha y hora oficial Temperatura (ºC) Velocidad del viento (km/h) Dirección del viento Racha (km/h) Dirección de racha Precipitación (mm) Presión (hPa) Tendencia (hPa) Humedad (%)
2021-03-02 23:00:00 9.4 10 Nordeste 20 Nordeste 0 -- -- 53
2021-03-02 22:00:00 8.8 5 Este 13 Sudeste 0 -- -- 56
2021-03-02 21:00:00 8.1 0 Calma 6 Este 0 -- -- 58
2021-03-02 20:00:00 8.7 2 Este 10 Nordeste 0 -- -- 56
2021-03-02 19:00:00 10.4 5 Este 12 Nordeste 0 -- -- 46
2021-03-02 18:00:00 11.6 7 Nordeste 14 Nordeste 0 -- -- 40
2021-03-02 17:00:00 12.9 5 Nordeste 17 Nordeste 0 -- -- 38
2021-03-02 16:00:00 13.2 7 Nordeste 19 Nordeste 0 -- -- 36
2021-03-02 15:00:00 13.1 8 Nordeste 18 Este 0 -- -- 34
2021-03-02 14:00:00 12.9 9 Nordeste 20 Este 0 -- -- 34
2021-03-02 13:00:00 13 8 Nordeste 26 Nordeste 0 -- -- 34
2021-03-02 12:00:00 13.2 12 Nordeste 26 Norte 0 -- -- 34
2021-03-02 11:00:00 13.2 8 Nordeste 23 Nordeste 0 -- -- 37
2021-03-02 10:00:00 12.6 5 Este 20 Nordeste 0 -- -- 46
2021-03-02 09:00:00 7.9 0 Calma 17 Este 0 -- -- 60
2021-03-02 08:00:00 7.5 3 Este 19 Este 0 -- -- 58
2021-03-02 07:00:00 7.1 12 Nordeste 30 Nordeste 0 -- -- 57
2021-03-02 06:00:00 6.9 6 Este 22 Nordeste 0 -- -- 56
2021-03-02 05:00:00 7.2 4 Nordeste 10 Nordeste 0 -- -- 58
2021-03-02 04:00:00 4.2 0 Calma 11 Oeste 0 -- -- 66
2021-03-02 03:00:00 5.2 0 Calma 12 Sudeste 0 -- -- 62
2021-03-02 02:00:00 5.3 0 Calma 7 Norte 0 -- -- 63
2021-03-02 01:00:00 5.5 0 Calma 17 Este 0 -- -- 59
2021-03-02 00:00:00 7.3 11 Nordeste 23 Nordeste 0 -- -- 55
2021-03-01 23:00:00 7 12 Nordeste 21 Nordeste 0 -- -- 55
2021-03-01 22:00:00 6.6 9 Nordeste 17 Nordeste 0 -- -- 54
2021-03-01 21:00:00 6.4 0 Calma 18 Este 0 -- -- 51
2021-03-01 20:00:00 8.7 8 Este 17 Este 0 -- -- 46
2021-03-01 19:00:00 9.1 5 Este 12 Este 9 -- -- 41
2021-03-01 18:00:00 13.1 4 Nordeste 24 Norte 0 -- -- 31
2021-03-01 17:00:00 14.3 2 Este 31 Sudeste 0 -- -- 31
2021-03-01 16:00:00 15.8 6 Sudoeste 20 Sudoeste 0 -- -- 31
2021-03-01 15:00:00 16.5 6 Sudoeste 18 Sudoeste 0 -- -- 30
2021-03-01 14:00:00 17.1 3 Sudoeste 31 Nordeste 0 -- -- 30
2021-03-01 13:00:00 14.6 13 Nordeste 44 Nordeste 0 -- -- 30
2021-03-01 12:00:00 14.1 8 Este 21 Nordeste 0 -- -- 33
2021-03-01 11:00:00 10.7 4 Este 13 Nordeste 0 -- -- 44
2021-03-01 10:00:00 5 0 Calma 6 Este 0 -- -- 64
2021-03-01 09:00:00 1.3 0 Calma 5 Noroeste 0 -- -- 73
2021-03-01 08:00:00 -0.1 0 Calma 8 Nordeste 0 -- -- 72
2021-03-01 07:00:00 -0.7 0 Calma 6 Nordeste 0 -- -- 76
2021-03-01 06:00:00 -0.3 4 Nordeste 9 Nordeste 0 -- -- 74
2021-03-01 05:00:00 -0.3 0 Calma 8 Nordeste 0 -- -- 76
2021-03-01 04:00:00 -0.3 5 Este 9 Nordeste 0 -- -- 76
2021-03-01 03:00:00 -0.5 0 Calma 9 Nordeste 0 -- -- 79
2021-03-01 02:00:00 0 0 Calma 6 Este 0 -- -- 76
2021-03-01 01:00:00 1.1 3 Nordeste 10 Este 0 -- -- 72
2021-03-01 00:00:00 2.3 3 Este 13 Nordeste 0 -- -- 70
2021-02-28 23:00:00 2.5 0 Calma 17 Este 0 -- -- 69
2021-02-28 22:00:00 5.2 10 Este 18 Nordeste 0 -- -- 62
2021-02-28 21:00:00 4.6 2 Este 15 Este 0 -- -- 64
2021-02-28 20:00:00 7 3 Este 14 Norte 0 -- -- 58
2021-02-28 19:00:00 7.6 8 Nordeste 18 Nordeste 0 -- -- 55
2021-02-28 18:00:00 8.3 7 Nordeste 23 Nordeste 0 -- -- 52
2021-02-28 17:00:00 8.6 9 Nordeste 20 Este 0 -- -- 52
2021-02-28 16:00:00 9.1 9 Nordeste 20 Este 0 -- -- 51
2021-02-28 15:00:00 9.9 3 Oeste 16 Sudoeste 0 -- -- 47
2021-02-28 14:00:00 10.5 6 Sudoeste 17 Sudoeste 0 -- -- 48
2021-02-28 13:00:00 8.7 8 Nordeste 21 Nordeste 0 -- -- 56
2021-02-28 12:00:00 7.7 9 Nordeste 19 Nordeste 0 -- -- 58
2021-02-28 11:00:00 5.9 3 Sudoeste 8 Sudoeste 0 -- -- 64
2021-02-28 10:00:00 4.5 2 Sur 5 Sur 0 -- -- 67
2021-02-28 09:00:00 1.1 0 Calma 5 Sudoeste 0 -- -- 75
2021-02-28 08:00:00 0.8 0 Calma 5 Nordeste 0 -- -- 77
2021-02-28 07:00:00 1.3 2 Sudoeste 12 Este 0 -- -- 72
2021-02-28 06:00:00 2.3 5 Este 14 Este 0 -- -- 64
2021-02-28 05:00:00 -0.2 2 Este 6 Nordeste 0 -- -- 77
2021-02-28 04:00:00 -0.4 3 Nordeste 12 Este 0 -- -- 78
2021-02-28 03:00:00 0 6 Nordeste 12 Este 0 -- -- 82
2021-02-28 02:00:00 0.2 4 Este 9 Este 0 -- -- 84
2021-02-28 01:00:00 1.6 3 Este 8 Nordeste 0 -- -- 78
2021-02-28 00:00:00 3.3 3 Nordeste 8 Nordeste 0 -- -- 77
2021-02-27 23:00:00 3.9 0 Calma 2 Nordeste 0 -- -- 78
2021-02-27 22:00:00 4.2 0 Calma 6 Nordeste 0 -- -- 77
2021-02-27 21:00:00 4.4 0 Calma 16 Sudoeste 0 -- -- 75
2021-02-27 20:00:00 5.9 6 Sudoeste 19 Oeste 0 -- -- 68
2021-02-27 19:00:00 7 6 Sudoeste 19 Sudoeste 0 -- -- 57
2021-02-27 18:00:00 8.9 6 Sudoeste 21 Sudoeste 0 -- -- 46
2021-02-27 17:00:00 11 7 Sudoeste 22 Sudoeste 0 -- -- 44
2021-02-27 16:00:00 13.1 7 Sudoeste 24 Sudoeste 0 -- -- 40
2021-02-27 15:00:00 14.3 5 Sudoeste 22 Sudoeste 0 -- -- 37
2021-02-27 14:00:00 13.8 6 Sudoeste 17 Oeste 0 -- -- 35
2021-02-27 13:00:00 14.3 4 Sudoeste 13 Oeste 0 -- -- 40
2021-02-27 12:00:00 11.2 0 Calma 6 Oeste 0 -- -- 50
2021-02-27 11:00:00 8.6 0 Calma 6 Sudeste 0 -- -- 58
2021-02-27 10:00:00 2.3 0 Calma 7 Este 0 -- -- 83
2021-02-27 09:00:00 0.4 0 Calma 11 Sudeste 0 -- -- 84
2021-02-27 08:00:00 -0.8 3 Nordeste 6 Nordeste 0 -- -- 88
2021-02-27 07:00:00 -0.6 2 Nordeste 5 Nordeste 0 -- -- 87
2021-02-27 06:00:00 -0.2 2 Nordeste 5 Sudeste 0 -- -- 86
2021-02-27 05:00:00 0.2 0 Calma 6 Este 0 -- -- 87
2021-02-27 04:00:00 0.7 2 Nordeste 9 Este 0 -- -- 87
2021-02-27 03:00:00 1.7 3 Este 11 Nordeste 0 -- -- 87
2021-02-27 02:00:00 3.2 5 Este 14 Nordeste 0 -- -- 78
2021-02-27 01:00:00 4.9 6 Este 11 Este 0 -- -- 72
2021-02-27 00:00:00 6 5 Este 12 Este 0 -- -- 71
2021-02-26 23:00:00 5.4 6 Nordeste 12 Este 0 -- -- 77
2021-02-26 22:00:00 4.4 2 Nordeste 7 Este 0 -- -- 89
2021-02-26 21:00:00 4.4 2 Nordeste 3 Nordeste 0 -- -- 88
2021-02-26 20:00:00 5.9 0 Calma 6 Este 0 -- -- 83
2021-02-26 19:00:00 8.7 2 Sudeste 14 Oeste 0 -- -- 73
2021-02-26 18:00:00 11.2 3 Sudoeste 14 Sudoeste 0 -- -- 59
2021-02-26 17:00:00 12.7 5 Sudoeste 17 Oeste 0 -- -- 50
2021-02-26 16:00:00 14 5 Sudoeste 21 Sudoeste 0 -- -- 45
2021-02-26 15:00:00 14.4 8 Sudoeste 26 Sudoeste 0 -- -- 42
2021-02-26 14:00:00 15.6 6 Sudoeste 17 Oeste 0 -- -- 40
2021-02-26 13:00:00 14.6 4 Sudoeste 14 Sur 0 -- -- 41
2021-02-26 12:00:00 11.9 3 Sudoeste 8 Sudoeste 0 -- -- 44
2021-02-26 11:00:00 9 2 Sudoeste 4 Oeste 0 -- -- 51
2021-02-26 10:00:00 3.2 0 Calma 5 Nordeste 0 -- -- 77
2021-02-26 09:00:00 1.6 0 Calma 6 Este 0 -- -- 79
2021-02-26 08:00:00 1.4 2 Este 13 Este 0 -- -- 78
2021-02-26 07:00:00 1.8 5 Este 13 Este 0 -- -- 77
2021-02-26 06:00:00 1 0 Calma 4 Nordeste 0 -- -- 82
2021-02-26 05:00:00 1 0 Calma 4 Nordeste 0 -- -- 82
2021-02-26 04:00:00 1.9 0 Calma 5 Nordeste 0 -- -- 79
2021-02-26 03:00:00 3.1 0 Calma 13 Este 0 -- -- 74
2021-02-26 02:00:00 2.7 3 Este 12 Nordeste 0 -- -- 79
2021-02-26 01:00:00 4.4 6 Este 14 Este 0 -- -- 74
2021-02-26 00:00:00 3.7 5 Nordeste 11 Nordeste 0 -- -- 80
2021-02-25 23:00:00 3.6 0 Calma 5 Nordeste 0 -- -- 81
2021-02-25 22:00:00 4.7 2 Este 5 Nordeste 0 -- -- 79
2021-02-25 21:00:00 5.7 0 Calma 6 Este 0 -- -- 74
2021-02-25 20:00:00 7.4 0 Calma 7 Este 0 -- -- 67
2021-02-25 19:00:00 10.8 0 Calma 15 Noroeste 0 -- -- 51
2021-02-25 18:00:00 13.5 4 Oeste 16 Oeste 0 -- -- 43
2021-02-25 17:00:00 15.5 3 Sudoeste 10 Oeste 0 -- -- 32
2021-02-25 16:00:00 17.2 4 Oeste 13 Sudoeste 0 -- -- 28
2021-02-25 15:00:00 17.9 3 Oeste 13 Sudoeste 0 -- -- 28
2021-02-25 14:00:00 17.5 4 Noroeste 17 Noroeste 0 -- -- 27
2021-02-25 13:00:00 16.5 2 Sudoeste 9 Sudoeste 0 -- -- 32
2021-02-25 12:00:00 15.4 2 Sudoeste 7 Sudoeste 0 -- -- 38
2021-02-25 11:00:00 10.1 0 Calma 4 Nordeste 0 -- -- 48
2021-02-25 10:00:00 5.5 0 Calma 12 Sudeste 0 -- -- 53
2021-02-25 09:00:00 4.9 0 Calma 21 Este 0 -- -- 45
2021-02-25 08:00:00 6.9 7 Este 19 Sudeste 0 -- -- 35
2021-02-25 07:00:00 6.6 8 Este 21 Este 0 -- -- 36
2021-02-25 06:00:00 4.8 6 Este 14 Este 0 -- -- 47
2021-02-25 05:00:00 4.9 5 Este 12 Este 0 -- -- 49
2021-02-25 04:00:00 2.6 0 Calma 12 Este 0 -- -- 55
2021-02-25 03:00:00 5.4 3 Sudeste 18 Sudeste 0 -- -- 45
2021-02-25 02:00:00 5.5 3 Este 18 Este 0 -- -- 42
2021-02-25 01:00:00 6.8 4 Este 19 Sudeste 0 -- -- 43
2021-02-25 00:00:00 6.6 6 Sudeste 18 Este 0 -- -- 47
2021-02-24 23:00:00 4.9 0 Calma 17 Este 0 -- -- 59
2021-02-24 22:00:00 5.7 0 Calma 16 Sudeste 0 -- -- 60
2021-02-24 21:00:00 5.2 0 Calma 10 Este 0 -- -- 65
2021-02-24 20:00:00 6.2 3 Nordeste 9 Este 0 -- -- 64
2021-02-24 19:00:00 7.1 0 Calma 8 Nordeste 0 -- -- 63
2021-02-24 18:00:00 9.7 3 Este 8 Sur 0 -- -- 52
2021-02-24 17:00:00 14 2 Sur 9 Oeste 0 -- -- 34
2021-02-24 16:00:00 15.8 3 Oeste 16 Sudoeste 0 -- -- 32
2021-02-24 15:00:00 17 5 Sudoeste 18 Sudoeste 0 -- -- 34
2021-02-24 14:00:00 17.2 6 Sudoeste 24 Sudoeste 0 -- -- 33
2021-02-24 13:00:00 16.7 4 Sudoeste 18 Sudoeste 0 -- -- 35
2021-02-24 12:00:00 13.8 2 Sudeste 10 Sudeste 0 -- -- 53
2021-02-24 11:00:00 10.6 0 Calma 4 Este 0 -- -- 66
2021-02-24 10:00:00 6.7 0 Calma 10 Este 0 -- -- 75
2021-02-24 09:00:00 6.4 3 Este 15 Sudeste 0 -- -- 72
2021-02-24 08:00:00 5.2 2 Este 15 Sudeste 0 -- -- 72
2021-02-24 07:00:00 6 5 Este 15 Este 0 -- -- 71
2021-02-24 06:00:00 6.5 5 Este 18 Este 0 -- -- 69
2021-02-24 05:00:00 6.6 5 Este 17 Sudeste 0 -- -- 68
2021-02-24 04:00:00 7 5 Este 15 Este 0 -- -- 68
2021-02-24 03:00:00 7.2 6 Este 17 Nordeste 0 -- -- 69
2021-02-24 02:00:00 6 5 Este 13 Sudeste 0 -- -- 72
2021-02-24 01:00:00 6.8 5 Este 13 Este 0 -- -- 69
2021-02-24 00:00:00 8.4 7 Este 18 Este 0 -- -- 62
2021-02-23 23:00:00 6.4 5 Este 17 Sudeste 0 -- -- 71
2021-02-23 22:00:00 8.5 5 Este 19 Nordeste 0 -- -- 64
2021-02-23 21:00:00 8.1 5 Este 17 Sudeste 0 -- -- 66
2021-02-23 20:00:00 7.7 7 Este 18 Este 0 -- -- 70
2021-02-23 19:00:00 9.1 9 Nordeste 18 Este 0 -- -- 65
2021-02-23 18:00:00 10.4 6 Este 14 Sudeste 0 -- -- 59
2021-02-23 17:00:00 12.7 3 Norte 16 Sudeste 0 -- -- 46
2021-02-23 16:00:00 13.3 2 Oeste 16 Noroeste 0 -- -- 44
2021-02-23 15:00:00 13.7 3 Oeste 14 Oeste 0 -- -- 43
2021-02-23 14:00:00 -- 2 Nordeste -- -- -- -- -- --
2021-02-23 13:00:00 14.5 4 Nordeste 24 Nordeste 0 -- -- 44
2021-02-23 12:00:00 12.5 10 Nordeste 28 Norte 0 -- -- 47
2021-02-23 11:00:00 10.6 8 Este 18 Este 0 -- -- 59
2021-02-23 10:00:00 7.8 6 Este 16 Sudeste 0 -- -- 70
2021-02-23 09:00:00 6.9 7 Este 19 Este 0 -- -- 76
2021-02-23 08:00:00 4.2 0 Calma 18 Sudeste 0 -- -- 90
2021-02-23 07:00:00 4 0 Calma 14 Este 0 -- -- 92
2021-02-23 06:00:00 5.8 10 Este 21 Este 0 -- -- 83
2021-02-23 05:00:00 5.7 7 Este 17 Este 0 -- -- 85
2021-02-23 04:00:00 4.5 0 Calma 7 Nordeste 0 -- -- 95
2021-02-23 03:00:00 4.2 4 Este 9 Nordeste 0 -- -- 95
2021-02-23 02:00:00 4.8 5 Este 9 Este 0 -- -- 96
2021-02-23 01:00:00 4.9 0 Calma 7 Sudoeste 0 -- -- 96
2021-02-23 00:00:00 5 0 Calma 6 Oeste 0 -- -- 96
2021-02-22 23:00:00 5.1 0 Calma 7 Oeste 0 -- -- 96
2021-02-22 22:00:00 5.1 0 Calma 6 Sudoeste 0 -- -- 96
2021-02-22 21:00:00 5.1 0 Calma 6 Noroeste 0 -- -- 95
2021-02-22 20:00:00 5.3 0 Calma 6 Sudeste 0 -- -- 94
2021-02-22 19:00:00 5.6 3 Sudeste 11 Oeste 0.1 -- -- 93
2021-02-22 18:00:00 5.8 2 Sudoeste 11 Oeste 0.1 -- -- 93
2021-02-22 17:00:00 6.2 0 Calma 12 Oeste 0.3 -- -- 93
2021-02-22 16:00:00 6.5 3 Sudoeste 18 Oeste 0.2 -- -- 93
2021-02-22 15:00:00 6.9 3 Oeste 12 Oeste 0.5 -- -- 93
2021-02-22 14:00:00 7.1 3 Oeste 9 Sudoeste 0.7 -- -- 92
2021-02-22 13:00:00 6.1 2 Sur 11 Sudoeste 1.7 -- -- 92
2021-02-22 12:00:00 5.7 3 Oeste 9 Noroeste 3.4 -- -- 93
2021-02-22 11:00:00 5.4 0 Calma 10 Norte 3.2 -- -- 93
2021-02-22 10:00:00 5.4 0 Calma 8 Nordeste 3.4 -- -- 93
2021-02-22 09:00:00 5.7 4 Nordeste 16 Nordeste 3.4 -- -- 92
2021-02-22 08:00:00 5.9 10 Nordeste 22 Nordeste 3.3 -- -- 90
2021-02-22 07:00:00 6.9 7 Este 19 Este 1.2 -- -- 87
2021-02-22 06:00:00 6.7 3 Este 19 Nordeste 2 -- -- 90
2021-02-22 05:00:00 6.6 7 Nordeste 12 Nordeste 1.4 -- -- 94
2021-02-22 04:00:00 6.8 4 Nordeste 19 Este 2.1 -- -- 93
2021-02-22 03:00:00 6.9 0 Calma 15 Este 2.2 -- -- 92
2021-02-22 02:00:00 6.9 5 Este 17 Este 1.7 -- -- 91
2021-02-22 01:00:00 7.1 6 Este 19 Este 0.9 -- -- 89
2021-02-22 00:00:00 7 7 Este 26 Nordeste 1.8 -- -- 88
2021-02-21 23:00:00 8.5 8 Este 35 Norte 0.7 -- -- 74
2021-02-21 22:00:00 9.4 7 Nordeste 18 Noroeste 0 -- -- 71
2021-02-21 21:00:00 12.9 6 Norte 32 Norte 0 -- -- 42
2021-02-21 20:00:00 13.2 5 Nordeste 30 Nordeste 0 -- -- 41
2021-02-21 19:00:00 13.4 3 Sudeste 28 Nordeste 0 -- -- 41
2021-02-21 18:00:00 13.2 7 Este 27 Nordeste 0 -- -- 41
2021-02-21 17:00:00 13.8 6 Nordeste 33 Norte 0 -- -- 40
2021-02-21 16:00:00 15.1 2 Este 22 Nordeste 0 -- -- 38
2021-02-21 15:00:00 15.2 9 Nordeste 49 Nordeste 0 -- -- 37
2021-02-21 14:00:00 15.7 14 Nordeste 68 Nordeste 0 -- -- 37
2021-02-21 13:00:00 15.2 22 Nordeste 63 Norte 0 -- -- 37
2021-02-21 12:00:00 15 24 Nordeste 57 Nordeste 0 -- -- 36
2021-02-21 11:00:00 15.3 12 Nordeste 41 Norte 0 -- -- 36
2021-02-21 10:00:00 13.3 14 Nordeste 39 Este 0 -- -- 36
2021-02-21 09:00:00 12.3 15 Nordeste 34 Nordeste 0 -- -- 35
2021-02-21 08:00:00 10.7 8 Nordeste 33 Este 0 -- -- 38
2021-02-21 07:00:00 10.9 7 Nordeste 22 Nordeste 0 -- -- 39
2021-02-21 06:00:00 11.2 11 Este 27 Nordeste 0 -- -- 37
2021-02-21 05:00:00 11.3 12 Nordeste 37 Nordeste 0 -- -- 34
2021-02-21 04:00:00 11.2 13 Nordeste 32 Nordeste 0 -- -- 34
2021-02-21 03:00:00 12.3 11 Nordeste 29 Nordeste 0 -- -- 34
2021-02-21 02:00:00 11.5 12 Nordeste 30 Nordeste 0 -- -- 37
2021-02-21 01:00:00 10.6 13 Nordeste 29 Nordeste 0 -- -- 37
2021-02-21 00:00:00 9.9 15 Nordeste 27 Nordeste 0 -- -- 38
2021-02-20 23:00:00 10.1 10 Nordeste 24 Nordeste 0 -- -- 39
2021-02-20 22:00:00 10.5 8 Este 27 Este 0 -- -- 40
2021-02-20 21:00:00 11.6 10 Este 31 Este 0 -- -- 38
2021-02-20 20:00:00 11.4 9 Nordeste 24 Este 0 -- -- 39
2021-02-20 19:00:00 12.2 14 Nordeste 30 Nordeste 0 -- -- 36
2021-02-20 18:00:00 12.4 7 Este 15 Este 0 -- -- 38
2021-02-20 17:00:00 14.3 4 Este 18 Sudoeste 0 -- -- 33
2021-02-20 16:00:00 15 2 Oeste 28 Noroeste 0 -- -- 32
2021-02-20 15:00:00 15.9 3 Noroeste 27 Norte 0 -- -- 31
2021-02-20 14:00:00 16 5 Oeste 30 Nordeste 0 -- -- 30
2021-02-20 13:00:00 16.4 8 Nordeste 34 Norte 0 -- -- 31
2021-02-20 12:00:00 15.8 5 Nordeste 22 Nordeste 0 -- -- 34
2021-02-20 11:00:00 13.8 0 Calma 14 Este 0 -- -- 42
2021-02-20 10:00:00 6.8 0 Calma 7 Nordeste 0 -- -- 63
2021-02-20 09:00:00 5.5 0 Calma 15 Este 0 -- -- 58
2021-02-20 08:00:00 6.5 4 Este 17 Sudeste 0 -- -- 51
2021-02-20 07:00:00 6.3 4 Este 15 Este 0 -- -- 51
2021-02-20 06:00:00 7.9 8 Este 21 Este 0 -- -- 48
2021-02-20 05:00:00 7.9 8 Este 23 Este 0 -- -- 48
2021-02-20 04:00:00 7.1 7 Este 21 Este 0 -- -- 49
2021-02-20 03:00:00 7.8 14 Este 22 Este 0 -- -- 49
2021-02-20 02:00:00 7 8 Este 22 Este 0 -- -- 49
2021-02-20 01:00:00 7 9 Este 22 Este 0 -- -- 49
2021-02-20 00:00:00 7.7 7 Este 24 Este 0 -- -- 47
2021-02-19 23:00:00 8.2 8 Este 23 Este 0 -- -- 46
2021-02-19 22:00:00 8.4 10 Este 23 Nordeste 0 -- -- 45
2021-02-19 21:00:00 8.7 9 Este 25 Nordeste 0 -- -- 45
2021-02-19 20:00:00 9.6 6 Este 21 Nordeste 0 -- -- 44
2021-02-19 19:00:00 11.1 5 Nordeste 27 Nordeste 0 -- -- 43
2021-02-19 18:00:00 10.6 2 Nordeste 16 Oeste 0 -- -- 44
2021-02-19 17:00:00 12.7 5 Oeste 22 Sudoeste 0 -- -- 37
2021-02-19 16:00:00 14.2 7 Sudoeste 23 Sudoeste 0 -- -- 36
2021-02-19 15:00:00 15.3 6 Sudoeste 25 Sudoeste 0 -- -- 36
2021-02-19 14:00:00 15.6 4 Oeste 21 Oeste 0 -- -- 37
2021-02-19 13:00:00 15.5 5 Oeste 24 Oeste 0 -- -- 37
2021-02-19 12:00:00 14.4 6 Oeste 14 Noroeste 0 -- -- 38
2021-02-19 11:00:00 10.9 4 Este 12 Sudeste 0 -- -- 50
2021-02-19 10:00:00 5.9 4 Este 18 Este 0 -- -- 64
2021-02-19 09:00:00 6.9 10 Este 23 Este 0 -- -- 56
2021-02-19 08:00:00 5.9 7 Este 20 Sudeste 0 -- -- 59
2021-02-19 07:00:00 5.8 6 Este 18 Nordeste 0 -- -- 59
2021-02-19 06:00:00 5.4 6 Nordeste 17 Este 0 -- -- 61
2021-02-19 05:00:00 6.1 7 Este 18 Sudeste 0 -- -- 61
2021-02-19 04:00:00 5.3 5 Este 13 Este 0 -- -- 65
2021-02-19 03:00:00 6.3 3 Este 14 Este 0 -- -- 62
2021-02-19 02:00:00 5.6 5 Este 18 Sudeste 0 -- -- 64
2021-02-19 01:00:00 5.9 4 Nordeste 15 Este 0 -- -- 62
2021-02-19 00:00:00 4.5 3 Nordeste 14 Nordeste 0 -- -- 67
2021-02-18 23:00:00 5.4 7 Nordeste 12 Nordeste 0 -- -- 61
2021-02-18 22:00:00 5.8 4 Este 15 Este 0 -- -- 58
2021-02-18 21:00:00 5.5 7 Nordeste 14 Nordeste 0 -- -- 56
2021-02-18 20:00:00 6.1 5 Nordeste 12 Este 0 -- -- 54
2021-02-18 19:00:00 8 6 Nordeste 11 Este 0 -- -- 49
2021-02-18 18:00:00 10.7 3 Sur 14 Sudeste 0 -- -- 39
2021-02-18 17:00:00 12.4 3 Sudoeste 11 Noroeste 0 -- -- 34
2021-02-18 16:00:00 14.3 4 Sudoeste 19 Oeste 0 -- -- 34
2021-02-18 15:00:00 15.7 4 Oeste 20 Oeste 0 -- -- 34
2021-02-18 14:00:00 16.9 5 Oeste 20 Sudoeste 0 -- -- 34
2021-02-18 13:00:00 16.4 5 Sudoeste 18 Sur 0 -- -- 34
2021-02-18 12:00:00 15.3 6 Nordeste 15 Nordeste 0 -- -- 34
2021-02-18 11:00:00 14.3 3 Nordeste 19 Norte 0 -- -- 39
2021-02-18 10:00:00 8.5 0 Calma 13 Nordeste 0 -- -- 63
2021-02-18 09:00:00 6.4 6 Este 12 Nordeste 0 -- -- 63
2021-02-18 08:00:00 5.5 3 Nordeste 10 Nordeste 0 -- -- 64
2021-02-18 07:00:00 7.7 2 Este 22 Oeste 0 -- -- 55
2021-02-18 06:00:00 6 2 Este 12 Nordeste 0 -- -- 64
2021-02-18 05:00:00 5.9 2 Nordeste 12 Este 0 -- -- 67
2021-02-18 04:00:00 7.8 4 Este 13 Sudeste 0 -- -- 64
2021-02-18 03:00:00 7 5 Este 13 Este 0 -- -- 67
2021-02-18 02:00:00 7.2 6 Nordeste 16 Este 0 -- -- 65
2021-02-18 01:00:00 6.6 6 Nordeste 14 Este 0 -- -- 68
2021-02-18 00:00:00 5.5 5 Nordeste 14 Este 0 -- -- 74
2021-02-17 23:00:00 4.8 2 Este 10 Este 0 -- -- 73
2021-02-17 22:00:00 6.4 9 Nordeste 15 Este 0 -- -- 64
2021-02-17 21:00:00 6.5 7 Este 14 Este 0 -- -- 61
2021-02-17 20:00:00 7.2 5 Este 15 Este 0 -- -- 60
2021-02-17 19:00:00 6.8 4 Este 8 Nordeste 0 -- -- 62
2021-02-17 18:00:00 10.2 0 Calma 9 Sur 0 -- -- 45
2021-02-17 17:00:00 12.1 2 Norte 18 Oeste 0 -- -- 39
2021-02-17 16:00:00 13.6 4 Oeste 16 Noroeste 0 -- -- 33
2021-02-17 15:00:00 15.5 3 Oeste 26 Oeste 0 -- -- 35
2021-02-17 14:00:00 14.5 6 Oeste 24 Sur 0 -- -- 36
2021-02-17 13:00:00 13.8 6 Sudoeste 19 Sudoeste 0 -- -- 39
2021-02-17 12:00:00 10.9 0 Calma 9 Sudeste 0 -- -- 51
2021-02-17 11:00:00 6.2 2 Este 7 Nordeste 0 -- -- 71
2021-02-17 10:00:00 2.3 0 Calma 9 Sudeste 0 -- -- 84
2021-02-17 09:00:00 1.2 0 Calma 9 Este 0 -- -- 87
2021-02-17 08:00:00 0.7 0 Calma 8 Sudeste 0 -- -- 89
2021-02-17 07:00:00 0.3 0 Calma 8 Nordeste 0 -- -- 90
2021-02-17 06:00:00 0.3 3 Nordeste 7 Nordeste 0 -- -- 92
2021-02-17 05:00:00 0.8 2 Nordeste 10 Nordeste 0 -- -- 89
2021-02-17 04:00:00 1.8 2 Este 13 Este 0 -- -- 86
2021-02-17 03:00:00 2.9 5 Este 12 Nordeste 0 -- -- 86
2021-02-17 02:00:00 3.5 4 Nordeste 15 Este 0 -- -- 83
2021-02-17 01:00:00 5.1 9 Este 14 Este 0 -- -- 79
2021-02-17 00:00:00 5.2 0 Calma 10 Nordeste 0 -- -- 83
2021-02-16 23:00:00 4.9 3 Nordeste 6 Sudeste 0 -- -- 84
2021-02-16 22:00:00 6.7 3 Sudeste 12 Oeste 0 -- -- 79
2021-02-16 21:00:00 8.2 0 Calma 14 Sudoeste 0 -- -- 69
2021-02-16 20:00:00 9.7 2 Sudoeste 26 Oeste 0 -- -- 61
2021-02-16 19:00:00 12.2 5 Oeste 17 Oeste 0 -- -- 43
2021-02-16 18:00:00 14.9 3 Sudoeste 17 Sudoeste 0 -- -- 30
2021-02-16 17:00:00 16.3 8 Sudoeste 19 Oeste 0 -- -- 27
2021-02-16 16:00:00 17.2 7 Sudoeste 25 Sudoeste 0 -- -- 27
2021-02-16 15:00:00 17.6 8 Sudoeste 29 Sudoeste 0 -- -- 28
2021-02-16 14:00:00 17.8 9 Sudoeste 31 Sudoeste 0 -- -- 28
2021-02-16 13:00:00 18 7 Sudoeste 32 Oeste 0 -- -- 28
2021-02-16 12:00:00 17.6 7 Oeste 30 Oeste 0 -- -- 28
2021-02-16 11:00:00 9.5 2 Este 12 Este 0 -- -- 51
2021-02-16 10:00:00 8.3 5 Este 18 Este 0 -- -- 47
2021-02-16 09:00:00 8.1 7 Este 17 Este 0 -- -- 42
2021-02-16 08:00:00 6.5 6 Este 15 Este 0 -- -- 44
2021-02-16 07:00:00 6.8 8 Este 16 Este 0 -- -- 44
2021-02-16 06:00:00 6.1 5 Este 18 Este 0 -- -- 46
2021-02-16 05:00:00 6.9 7 Este 17 Nordeste 0 -- -- 45
2021-02-16 04:00:00 7.8 9 Este 19 Este 0 -- -- 45
2021-02-16 03:00:00 8.2 9 Este 22 Este 0 -- -- 46
2021-02-16 02:00:00 7.7 9 Este 20 Este 0 -- -- 49
2021-02-16 01:00:00 7.5 7 Este 17 Este 0 -- -- 53
2021-02-16 00:00:00 7.1 8 Este 16 Sudeste 0 -- -- 56
2021-02-15 23:00:00 7.4 6 Este 18 Este 0 -- -- 58
2021-02-15 22:00:00 7.7 5 Este 17 Nordeste 0 -- -- 58
2021-02-15 21:00:00 7.9 5 Este 16 Este 0 -- -- 57
2021-02-15 20:00:00 8.7 4 Este 17 Este 0 -- -- 57
2021-02-15 19:00:00 9.4 5 Este 15 Este 0 -- -- 56
2021-02-15 18:00:00 10.5 3 Este 14 Norte 0 -- -- 53
2021-02-15 17:00:00 13.8 5 Este 13 Nordeste 0 -- -- 43
2021-02-15 16:00:00 14.9 5 Este 10 Este 0 -- -- 37
2021-02-15 15:00:00 16.3 6 Este 12 Este 0 -- -- 32
2021-02-15 14:00:00 17 0 Calma 12 Norte 0 -- -- 34
2021-02-15 13:00:00 14.7 3 Este 9 Este 0 -- -- 42
2021-02-15 12:00:00 10.6 3 Este 9 Este 0 -- -- 52
2021-02-15 11:00:00 5.3 4 Este 9 Este 0 -- -- 63
2021-02-15 10:00:00 2.8 2 Este 15 Sudeste 0 -- -- 67
2021-02-15 09:00:00 4.4 7 Este 15 Este 0 -- -- 57
2021-02-15 08:00:00 3.1 6 Este 16 Nordeste 0 -- -- 59
2021-02-15 07:00:00 3.2 7 Este 15 Este 0 -- -- 60
2021-02-15 06:00:00 2.7 6 Este 19 Este 0 -- -- 63
2021-02-15 05:00:00 3 5 Este 19 Norte 0 -- -- 64
2021-02-15 04:00:00 3.8 4 Este 21 Nordeste 0 -- -- 64
2021-02-15 03:00:00 4.2 4 Este 23 Este 0 -- -- 64
2021-02-15 02:00:00 3.6 2 Este 20 Norte 0 -- -- 66
2021-02-15 01:00:00 4.3 5 Este 25 Nordeste 0 -- -- 64
2021-02-15 00:00:00 4.6 4 Este 26 Nordeste 0 -- -- 64
2021-02-14 23:00:00 5 5 Este 23 Nordeste 0 -- -- 65
2021-02-14 22:00:00 5.4 8 Este 22 Norte 0 -- -- 65
2021-02-14 21:00:00 5.7 5 Este 22 Nordeste 0 -- -- 61
2021-02-14 20:00:00 6.6 8 Este 21 Nordeste 0 -- -- 61
2021-02-14 19:00:00 6.9 8 Nordeste 14 Este 0 -- -- 64
2021-02-14 18:00:00 7.2 3 Este 7 Este 0 -- -- 67
2021-02-14 17:00:00 8 0 Calma 13 Sudoeste 0 -- -- 57
2021-02-14 16:00:00 11.7 4 Este 14 Este 0 -- -- 42
2021-02-14 15:00:00 12.5 7 Nordeste 21 Nordeste 0 -- -- 40
2021-02-14 14:00:00 11.5 12 Nordeste 30 Nordeste 0 -- -- 40
2021-02-14 13:00:00 10.6 14 Nordeste 25 Este 0 -- -- 41
2021-02-14 12:00:00 8.2 8 Este 16 Nordeste 0 -- -- 54
2021-02-14 11:00:00 4.2 6 Este 18 Este 0 -- -- 63
2021-02-14 10:00:00 1.5 0 Calma 13 Sudeste 0 -- -- 79
2021-02-14 09:00:00 0.3 3 Este 11 Sudeste 0 -- -- 87
2021-02-14 08:00:00 -0.6 2 Nordeste 9 Nordeste 0 -- -- 90
2021-02-14 07:00:00 -0.9 3 Nordeste 8 Nordeste 0 -- -- 91
2021-02-14 06:00:00 -0.1 4 Este 10 Nordeste 0 -- -- 89
2021-02-14 05:00:00 -0.6 3 Nordeste 9 Nordeste 0 -- -- 92
2021-02-14 04:00:00 -0.2 3 Nordeste 10 Este 0 -- -- 92
2021-02-14 03:00:00 0.5 5 Este 11 Este 0 -- -- 92
2021-02-14 02:00:00 1 4 Este 9 Nordeste 0 -- -- 92
2021-02-14 01:00:00 1 2 Este 7 Nordeste 0 -- -- 93
2021-02-14 00:00:00 1.9 3 Nordeste 8 Nordeste 0 -- -- 91
2021-02-13 23:00:00 3.9 3 Nordeste 10 Nordeste 0 -- -- 90
2021-02-13 22:00:00 4.5 0 Calma 6 Nordeste 0 -- -- 88
2021-02-13 21:00:00 5.1 0 Calma 13 Oeste 0 -- -- 86
2021-02-13 20:00:00 5.4 4 Nordeste 15 Sudoeste 0 -- -- 83
2021-02-13 19:00:00 6 5 Sudoeste 15 Sudoeste 0 -- -- 79
2021-02-13 18:00:00 6.8 4 Oeste 16 Sudoeste 0 -- -- 74
2021-02-13 17:00:00 8.3 5 Sudoeste 19 Oeste 0 -- -- 64
2021-02-13 16:00:00 10.3 5 Oeste 20 Sudoeste 0 -- -- 52
2021-02-13 15:00:00 11.5 6 Sudoeste 13 Sudoeste 0 -- -- 50
2021-02-13 14:00:00 11.9 3 Este 10 Nordeste 0 -- -- 48
2021-02-13 13:00:00 11.3 0 Calma 8 Este 0 -- -- 48
2021-02-13 08:00:00 3.1 0 Calma 7 Nordeste 0 -- -- 96
2021-02-13 07:00:00 3.2 0 Calma 2 Este 0.1 -- -- 96
2021-02-13 06:00:00 3.6 3 Nordeste 6 Nordeste 0.1 -- -- 96
2021-02-13 05:00:00 3.5 0 Calma 8 Sudeste 0.1 -- -- 95
2021-02-13 04:00:00 3.6 2 Sur 10 Sur 0.2 -- -- 94
2021-02-13 03:00:00 3.7 4 Sur 15 Sudoeste 0 -- -- 94
2021-02-13 02:00:00 3.7 2 Sudoeste 21 Sudoeste 0.4 -- -- 92
2021-02-13 01:00:00 4 4 Sudoeste 32 Sudoeste 1 -- -- 90
2021-02-13 00:00:00 4.1 11 Sudoeste 32 Sudoeste 1.6 -- -- 88
2021-02-12 23:00:00 4.6 5 Sudoeste 26 Sudoeste 1.4 -- -- 88
2021-02-12 22:00:00 4.9 4 Sudoeste 25 Oeste 1.3 -- -- 90
2021-02-12 21:00:00 5.4 8 Sudoeste 37 Sudoeste 0.9 -- -- 84
2021-02-12 20:00:00 6.2 8 Sudoeste 26 Sudoeste 1.8 -- -- 85
2021-02-12 19:00:00 5.9 0 Calma 13 Sudoeste 1.4 -- -- 93
2021-02-12 18:00:00 6.2 2 Sur 8 Sudeste 0.4 -- -- 92
2021-02-12 17:00:00 6.3 0 Calma 7 Oeste 0.4 -- -- 93
2021-02-12 16:00:00 6.5 0 Calma 9 Sudoeste 1.3 -- -- 89
2021-02-12 15:00:00 6.4 4 Sudoeste 17 Sudoeste 3.1 -- -- 90
2021-02-12 14:00:00 7.8 5 Sudoeste 15 Sudoeste 1 -- -- 86
2021-02-12 13:00:00 9 6 Sudoeste 22 Oeste 0 -- -- 73
2021-02-12 12:00:00 11.2 4 Sudoeste 16 Sudoeste 0 -- -- 56
2021-02-12 11:00:00 11.5 2 Sudoeste 8 Sudoeste 0 -- -- 58
2021-02-12 10:00:00 10 3 Nordeste 15 Nordeste 0 -- -- 64
2021-02-12 09:00:00 6 5 Nordeste 14 Nordeste 0 -- -- 76
2021-02-12 08:00:00 5.8 4 Este 17 Este 0 -- -- 71
2021-02-12 07:00:00 7.3 13 Este 22 Nordeste 0 -- -- 59
2021-02-12 06:00:00 6.7 9 Este 21 Este 0 -- -- 63
2021-02-12 05:00:00 6.4 6 Este 15 Este 0 -- -- 64
2021-02-12 04:00:00 5.1 6 Este 15 Sudeste 0 -- -- 70
2021-02-12 03:00:00 2.5 0 Calma 5 Nordeste 0 -- -- 87
2021-02-12 02:00:00 2.7 0 Calma 14 Este 0 -- -- 85
2021-02-12 01:00:00 2 0 Calma 6 Este 0 -- -- 89
2021-02-12 00:00:00 2.6 0 Calma 12 Sudeste 0 -- -- 86
2021-02-11 23:00:00 2.6 3 Este 12 Nordeste 0 -- -- 86
2021-02-11 22:00:00 3.1 5 Este 14 Nordeste 0 -- -- 85
2021-02-11 21:00:00 2.4 0 Calma 8 Este 0 -- -- 89
2021-02-11 20:00:00 3.2 0 Calma 7 Nordeste 0 -- -- 85
2021-02-11 19:00:00 3.6 3 Nordeste 5 Nordeste 0 -- -- 84
2021-02-11 18:00:00 6.3 0 Calma 6 Nordeste 0 -- -- 73
2021-02-11 17:00:00 10.9 0 Calma 9 Oeste 0 -- -- 49
2021-02-11 16:00:00 10 0 Calma 6 Este 0 -- -- 58
2021-02-11 15:00:00 10.4 2 Nordeste 6 Sudeste 0 -- -- 51
2021-02-11 14:00:00 9.7 0 Calma 9 Nordeste 0 -- -- 63
2021-02-11 13:00:00 5.5 4 Nordeste 8 Nordeste 0 -- -- 71
2021-02-11 12:00:00 2.9 3 Este 7 Este 0 -- -- 79
2021-02-11 11:00:00 -0.1 0 Calma 7 Nordeste 0 -- -- 87
2021-02-11 10:00:00 -1.5 0 Calma 6 Norte 0 -- -- 91
2021-02-11 09:00:00 -1.8 0 Calma 12 Nordeste 0 -- -- 88
2021-02-11 08:00:00 -2.4 4 Nordeste 12 Nordeste 0 -- -- 90
2021-02-11 07:00:00 -2.6 0 Calma 9 Nordeste 0 -- -- 90
2021-02-11 06:00:00 -2.2 4 Este 11 Nordeste 0 -- -- 89
2021-02-11 05:00:00 -2.4 3 Nordeste 11 Nordeste 0 -- -- 89
2021-02-11 04:00:00 -1.4 6 Nordeste 13 Nordeste 0 -- -- 85
2021-02-11 03:00:00 -1.2 5 Este 13 Este 0 -- -- 87
2021-02-11 02:00:00 -1.3 0 Calma 13 Este 0 -- -- 91
2021-02-11 01:00:00 0 8 Este 15 Este 0 -- -- 82
2021-02-11 00:00:00 -0.4 4 Este 10 Este 0 -- -- 95
2021-02-10 23:00:00 -0.5 0 Calma 5 Este 0 -- -- 95
2021-02-10 22:00:00 0 0 Calma 12 Este 0 -- -- 94
2021-02-10 21:00:00 0.5 2 Este 6 Nordeste 0 -- -- 94
2021-02-10 20:00:00 1.9 0 Calma 7 Sudeste 0 -- -- 93
2021-02-10 19:00:00 2 0 Calma 5 Norte 0.1 -- -- 92
2021-02-10 18:00:00 2.1 0 Calma 6 Nordeste 0.1 -- -- 91
2021-02-10 17:00:00 2.2 2 Norte 7 Sudoeste 0.3 -- -- 90
2021-02-10 16:00:00 2.9 0 Calma 13 Sudoeste 0.3 -- -- 85
2021-02-10 15:00:00 3.5 4 Sudoeste 17 Sudoeste 0.1 -- -- 85
2021-02-10 14:00:00 3.8 4 Oeste 14 Oeste 0 -- -- 87
2021-02-10 13:00:00 2.6 4 Sudoeste 9 Sudoeste 0.1 -- -- 90
2021-02-10 12:00:00 1.9 2 Sur 8 Sudeste 0.1 -- -- 85
2021-02-10 11:00:00 2.1 0 Calma 6 Este 0 -- -- 82
2021-02-10 10:00:00 1.2 0 Calma 5 Sudoeste 0 -- -- 78
2021-02-10 09:00:00 0.7 0 Calma 10 Sur 0 -- -- 78
2021-02-10 08:00:00 0.5 4 Este 15 Nordeste 0 -- -- 76
2021-02-10 07:00:00 0.3 6 Este 14 Este 0 -- -- 79
2021-02-10 06:00:00 -0.1 0 Calma 14 Sudeste 0 -- -- 85
2021-02-10 05:00:00 1.1 7 Este 17 Sudeste 0 -- -- 76
2021-02-10 04:00:00 0.7 6 Este 12 Este 0 -- -- 80
2021-02-10 03:00:00 0.2 3 Este 12 Nordeste 0 -- -- 90
2021-02-10 02:00:00 0.9 3 Este 13 Nordeste 0 -- -- 90
2021-02-10 01:00:00 1.4 3 Este 12 Nordeste 0 -- -- 87
2021-02-10 00:00:00 1.1 4 Nordeste 10 Este 0 -- -- 95
2021-02-09 23:00:00 0.7 3 Nordeste 9 Este 0 -- -- 95
2021-02-09 22:00:00 1.1 0 Calma 12 Este 0 -- -- 93
2021-02-09 21:00:00 2.4 5 Este 13 Nordeste 0 -- -- 92
2021-02-09 20:00:00 3.4 3 Nordeste 12 Este 0.2 -- -- 88
2021-02-09 19:00:00 3.9 5 Este 12 Sudeste 0.6 -- -- 87
2021-02-09 18:00:00 4.5 2 Este 14 Sudeste 0.3 -- -- 83
2021-02-09 17:00:00 5.8 3 Este 9 Este 0 -- -- 77
2021-02-09 16:00:00 6.3 0 Calma 19 Sudoeste 0 -- -- 68
2021-02-09 15:00:00 7.6 8 Oeste 22 Sudoeste 0 -- -- 56
2021-02-09 14:00:00 8.8 2 Oeste 12 Este 0 -- -- 62
2021-02-09 13:00:00 6.3 6 Este 16 Nordeste 0 -- -- 71
2021-02-09 12:00:00 3.7 4 Este 13 Nordeste 0 -- -- 81
2021-02-09 11:00:00 2 2 Este 13 Sudeste 0 -- -- 85
2021-02-09 10:00:00 1.5 4 Este 10 Sudeste 0 -- -- 81
2021-02-09 09:00:00 0.6 3 Sudeste 15 Nordeste 0 -- -- 81
2021-02-09 08:00:00 -1.2 6 Este 15 Nordeste 0 -- -- 88
2021-02-09 07:00:00 -1.6 3 Este 12 Nordeste 0 -- -- 90
2021-02-09 06:00:00 -1.7 7 Nordeste 14 Nordeste 0 -- -- 88
2021-02-09 05:00:00 -1.8 5 Este 12 Nordeste 0 -- -- 90
2021-02-09 04:00:00 -1.7 3 Nordeste 10 Nordeste 0 -- -- 92
2021-02-09 03:00:00 -1.8 2 Nordeste 12 Nordeste 0 -- -- 92
2021-02-09 02:00:00 -1.3 4 Nordeste 13 Nordeste 0 -- -- 92
2021-02-09 01:00:00 -0.5 6 Nordeste 12 Nordeste 0 -- -- 89
2021-02-09 00:00:00 -0.6 4 Este 9 Nordeste 0 -- -- 94
2021-02-08 23:00:00 -0.2 4 Este 8 Nordeste 0 -- -- 95
2021-02-08 22:00:00 0.3 4 Sudeste 10 Nordeste 0 -- -- 94
2021-02-08 21:00:00 0.2 3 Nordeste 8 Este 0 -- -- 96
2021-02-08 20:00:00 0.7 0 Calma 2 Este 0 -- -- 96
2021-02-08 19:00:00 0.5 0 Calma 4 Este 0.1 -- -- 95
2021-02-08 18:00:00 0.6 0 Calma 5 Sur 1.6 -- -- 94
2021-02-08 17:00:00 0.8 2 Sur 8 Sudoeste 2.3 -- -- 93
2021-02-08 16:00:00 2.3 3 Sudoeste 10 Oeste 1.2 -- -- 89
2021-02-08 15:00:00 3.8 4 Nordeste 12 Este 0.3 -- -- 83
2021-02-08 14:00:00 5 3 Este 14 Norte 0.3 -- -- 71
2021-02-08 13:00:00 6.2 5 Nordeste 15 Este 0 -- -- 59
2021-02-08 12:00:00 5.6 8 Nordeste 22 Nordeste 0 -- -- 60
2021-02-08 11:00:00 4.7 12 Nordeste 22 Nordeste 0 -- -- 63
2021-02-08 10:00:00 3.6 0 Calma 16 Este 0 -- -- 74
2021-02-08 09:00:00 2.3 3 Este 17 Este 0 -- -- 77
2021-02-08 08:00:00 2.4 5 Este 14 Este 0 -- -- 76
2021-02-08 07:00:00 2.2 6 Este 16 Nordeste 0 -- -- 79
2021-02-08 06:00:00 0.5 0 Calma 10 Nordeste 0 -- -- 93
2021-02-08 05:00:00 0.7 0 Calma 10 Nordeste 0 -- -- 92
2021-02-08 04:00:00 1.4 4 Nordeste 7 Nordeste 0 -- -- 91
2021-02-08 03:00:00 1.2 2 Sudeste 6 Este 0 -- -- 89
2021-02-08 02:00:00 1.3 0 Calma 8 Este 0 -- -- 89
2021-02-08 01:00:00 1.3 3 Este 8 Este 0 -- -- 86
2021-02-08 00:00:00 0.5 2 Nordeste 7 Nordeste 0 -- -- 89
2021-02-07 23:00:00 1.1 2 Nordeste 6 Este 0 -- -- 89
2021-02-07 22:00:00 1.3 2 Nordeste 4 Nordeste 0 -- -- 88
2021-02-07 21:00:00 1.6 0 Calma 5 Nordeste 0 -- -- 87
2021-02-07 20:00:00 1.4 0 Calma 3 Nordeste 0 -- -- 87
2021-02-07 19:00:00 1.7 3 Sudeste 8 Nordeste 0 -- -- 81
2021-02-07 18:00:00 2.9 0 Calma 3 Oeste 0 -- -- 75
2021-02-07 17:00:00 4.9 0 Calma 9 Oeste 0 -- -- 54
2021-02-07 16:00:00 5.7 3 Sudoeste 13 Sudoeste 0 -- -- 46
2021-02-07 15:00:00 5.8 5 Sudoeste 17 Sudoeste 0 -- -- 47
2021-02-07 14:00:00 6.5 3 Sudoeste 8 Oeste 0 -- -- 45
2021-02-07 13:00:00 4 3 Sudeste 8 Sudeste 0 -- -- 62
2021-02-07 12:00:00 2 2 Sudeste 6 Sudeste 0 -- -- 79
2021-02-07 11:00:00 -0.3 0 Calma 3 Nordeste 0 -- -- 90
2021-02-07 10:00:00 -0.3 0 Calma 7 Sudoeste 0 -- -- 91
2021-02-07 09:00:00 -0.4 0 Calma 10 Sudoeste 0 -- -- 93
2021-02-07 08:00:00 -0.1 2 Sudoeste 10 Oeste 0 -- -- 95
2021-02-07 07:00:00 0 0 Calma 12 Oeste 0.1 -- -- 94
2021-02-07 06:00:00 0.1 2 Oeste 13 Oeste 0.4 -- -- 94
2021-02-07 05:00:00 0.4 3 Oeste 11 Oeste 0.4 -- -- 94
2021-02-07 04:00:00 0.7 3 Sudoeste 15 Sudoeste 0.2 -- -- 92
2021-02-07 03:00:00 1.4 4 Sudoeste 17 Sudoeste 0 -- -- 91
2021-02-07 02:00:00 2.2 5 Sudoeste 16 Oeste 0 -- -- 92
2021-02-07 01:00:00 3.1 3 Noroeste 9 Noroeste 0 -- -- 94
2021-02-07 00:00:00 3.2 0 Calma 5 Nordeste 0 -- -- 94
2021-02-06 23:00:00 2.9 5 Nordeste 13 Nordeste 0.7 -- -- 92
2021-02-06 22:00:00 3.9 0 Calma 14 Sudoeste 2.2 -- -- 90
2021-02-06 21:00:00 5 0 Calma 6 Sudeste 0 -- -- 84
2021-02-06 20:00:00 5 0 Calma 6 Este 0 -- -- 83
2021-02-06 19:00:00 6.1 0 Calma 10 Sur 0 -- -- 74
2021-02-06 18:00:00 7 2 Norte 22 Norte 0 -- -- 71
2021-02-06 17:00:00 7.9 3 Sur 16 Sudeste 0 -- -- 67
2021-02-06 16:00:00 8.5 0 Calma 12 Nordeste 0 -- -- 68
2021-02-06 15:00:00 9.3 3 Nordeste 20 Sudoeste 0.1 -- -- 59
2021-02-06 14:00:00 11.6 3 Nordeste 13 Sudeste 0 -- -- 52
2021-02-06 13:00:00 11.3 5 Sur 22 Sudeste 0 -- -- 53
2021-02-06 12:00:00 9.6 4 Nordeste 15 Este 0.1 -- -- 70
2021-02-06 11:00:00 8.6 3 Nordeste 30 Este 0.1 -- -- 73
2021-02-06 10:00:00 9.4 6 Este 19 Este 0.1 -- -- 63
2021-02-06 09:00:00 9.2 3 Sudeste 14 Sudeste 0 -- -- 66
2021-02-06 08:00:00 7.9 3 Este 25 Nordeste 0 -- -- 74
2021-02-06 07:00:00 7.2 4 Este 17 Sudeste 0 -- -- 83
2021-02-06 06:00:00 6.3 5 Este 12 Nordeste 0 -- -- 90
2021-02-06 05:00:00 6.4 2 Nordeste 16 Este 0.5 -- -- 88
2021-02-06 04:00:00 6.7 4 Sudeste 12 Sudeste 0.3 -- -- 87
2021-02-06 03:00:00 7.5 6 Este 25 Nordeste 0.4 -- -- 80
2021-02-06 02:00:00 10.2 2 Sudoeste 23 Oeste 0 -- -- 53
2021-02-06 01:00:00 7.6 0 Calma 9 Sudeste 0 -- -- 57
2021-02-06 00:00:00 8.2 2 Nordeste 10 Nordeste 0 -- -- 58
2021-02-05 23:00:00 7.1 5 Nordeste 10 Este 0 -- -- 60
2021-02-05 22:00:00 9.6 2 Sudeste 19 Sudoeste 0 -- -- 46
2021-02-05 21:00:00 9.2 3 Este 13 Sudeste 0 -- -- 51
2021-02-05 20:00:00 11 5 Este 14 Nordeste 0 -- -- 43
2021-02-05 19:00:00 13 7 Este 18 Sudeste 0 -- -- 38
2021-02-05 18:00:00 14.1 5 Nordeste 28 Nordeste 0 -- -- 35
2021-02-05 17:00:00 14.7 8 Sudoeste 39 Oeste 0 -- -- 35
2021-02-05 16:00:00 15.3 7 Sudoeste 32 Sudoeste 0 -- -- 35
2021-02-05 15:00:00 16.1 5 Oeste 28 Sudoeste 0 -- -- 35
2021-02-05 14:00:00 16.9 7 Sudoeste 27 Oeste 0 -- -- 34
2021-02-05 13:00:00 16.9 8 Oeste 23 Oeste 0 -- -- 35
2021-02-05 12:00:00 14.7 0 Calma 21 Oeste 0 -- -- 45
2021-02-05 11:00:00 10.8 2 Nordeste 9 Nordeste 0 -- -- 66
2021-02-05 10:00:00 9 2 Sudeste 12 Noroeste 0 -- -- 66
2021-02-05 09:00:00 7.1 3 Este 9 Nordeste 0 -- -- 73
2021-02-05 08:00:00 7 0 Calma 9 Sur 0 -- -- 68
2021-02-05 07:00:00 8.9 2 Este 16 Nordeste 0 -- -- 59
2021-02-05 06:00:00 7.3 0 Calma 18 Nordeste 0 -- -- 66
2021-02-05 05:00:00 10.3 12 Nordeste 22 Nordeste 0 -- -- 55
2021-02-05 04:00:00 9.7 11 Este 20 Nordeste 0 -- -- 58
2021-02-05 03:00:00 8.9 6 Este 17 Este 0 -- -- 59
2021-02-05 02:00:00 12.4 8 Oeste 33 Sudoeste 0 -- -- 46
2021-02-05 01:00:00 13.1 6 Oeste 30 Noroeste 0 -- -- 40
2021-02-05 00:00:00 13.1 7 Oeste 27 Oeste 0 -- -- 41
2021-02-04 23:00:00 12.6 2 Sur 32 Este 0 -- -- 39
2021-02-04 22:00:00 8.9 7 Nordeste 19 Este 0 -- -- 52
2021-02-04 21:00:00 8.8 8 Nordeste 22 Nordeste 0 -- -- 53
2021-02-04 20:00:00 10.4 9 Este 20 Este 0 -- -- 48
2021-02-04 19:00:00 9 7 Este 15 Este 0 -- -- 52
2021-02-04 18:00:00 10 0 Calma 12 Nordeste 0 -- -- 52
2021-02-04 17:00:00 10.4 6 Este 12 Este 0 -- -- 56
2021-02-04 16:00:00 11.8 5 Nordeste 13 Noroeste 0 -- -- 54
2021-02-04 15:00:00 15.1 3 Oeste 13 Oeste 0 -- -- 38
2021-02-04 14:00:00 16 0 Calma 18 Este 0 -- -- 37
2021-02-04 13:00:00 14.1 8 Nordeste 13 Nordeste 0 -- -- 43
2021-02-04 12:00:00 11.5 3 Este 9 Este 0 -- -- 63
2021-02-04 11:00:00 7 3 Este 8 Nordeste 0 -- -- 78
2021-02-04 10:00:00 6.6 0 Calma 11 Este 0 -- -- 77
2021-02-04 09:00:00 5 2 Nordeste 8 Nordeste 0 -- -- 81
2021-02-04 08:00:00 5.5 0 Calma 15 Este 0 -- -- 74
2021-02-04 07:00:00 8.1 7 Este 19 Este 0 -- -- 62
2021-02-04 06:00:00 6.9 6 Este 17 Este 0 -- -- 68
2021-02-04 05:00:00 7.2 5 Este 17 Este 0 -- -- 67
2021-02-04 04:00:00 7.7 7 Este 18 Este 0 -- -- 64
2021-02-04 03:00:00 7.7 4 Este 17 Nordeste 0 -- -- 64
2021-02-04 02:00:00 7.8 5 Este 16 Este 0 -- -- 68
2021-02-04 01:00:00 4.9 0 Calma 10 Este 0 -- -- 83
2021-02-04 00:00:00 4.5 2 Este 10 Este 0 -- -- 86
2021-02-03 23:00:00 4.5 0 Calma 13 Este 0 -- -- 86
2021-02-03 22:00:00 5.9 6 Este 13 Este 0 -- -- 80
2021-02-03 21:00:00 6.1 3 Este 11 Este 0 -- -- 80
2021-02-03 20:00:00 6.2 0 Calma 11 Este 0 -- -- 80
2021-02-03 19:00:00 7.7 2 Norte 13 Noroeste 0 -- -- 78
2021-02-03 18:00:00 9.2 0 Calma 10 Noroeste 0 -- -- 68
2021-02-03 17:00:00 10.3 0 Calma 10 Sudoeste 0 -- -- 58
2021-02-03 16:00:00 13.9 0 Calma 13 Oeste 0 -- -- 39
2021-02-03 15:00:00 15.9 5 Sudoeste 22 Sudoeste 0 -- -- 36
2021-02-03 14:00:00 16.6 4 Sudoeste 19 Sudoeste 0 -- -- 37
2021-02-03 13:00:00 16.5 8 Sudoeste 20 Sudoeste 0 -- -- 37
2021-02-03 12:00:00 12.2 0 Calma 20 Noroeste 0 -- -- 52
2021-02-03 11:00:00 8.2 3 Nordeste 13 Oeste 0 -- -- 67
2021-02-03 10:00:00 6.7 6 Nordeste 23 Este 0 -- -- 68
2021-02-03 09:00:00 7.8 10 Este 20 Nordeste 0 -- -- 58
2021-02-03 08:00:00 7.5 9 Nordeste 21 Este 0 -- -- 57
2021-02-03 07:00:00 7.8 10 Nordeste 21 Nordeste 0 -- -- 54
2021-02-03 06:00:00 7.7 10 Nordeste 22 Nordeste 0 -- -- 54
2021-02-03 05:00:00 7.3 8 Este 17 Este 0 -- -- 57
2021-02-03 04:00:00 5.1 4 Nordeste 18 Este 0 -- -- 75
2021-02-03 03:00:00 8.1 10 Este 21 Este 0 -- -- 55
2021-02-03 02:00:00 8 12 Este 21 Este 0 -- -- 62
2021-02-03 01:00:00 5.7 5 Este 18 Este 0 -- -- 81
2021-02-03 00:00:00 6.9 7 Este 20 Nordeste 0 -- -- 76
2021-02-02 23:00:00 7.5 9 Este 19 Este 0 -- -- 74
2021-02-02 22:00:00 7.2 6 Este 15 Sudeste 0 -- -- 77
2021-02-02 21:00:00 5 3 Nordeste 7 Nordeste 0 -- -- 91
2021-02-02 20:00:00 5.9 0 Calma 7 Nordeste 0 -- -- 91
2021-02-02 19:00:00 6.4 0 Calma 5 Nordeste 0 -- -- 87
2021-02-02 18:00:00 7.9 0 Calma 6 Nordeste 0 -- -- 87
2021-02-02 17:00:00 9.8 0 Calma 6 Este 0 -- -- 83
2021-02-02 16:00:00 10.6 2 Este 6 Nordeste 0 -- -- 80
2021-02-02 15:00:00 11.8 3 Nordeste 10 Nordeste 0 -- -- 74
2021-02-02 14:00:00 13.1 3 Este 11 Este 0 -- -- 64
2021-02-02 13:00:00 10.4 0 Calma 7 Sudoeste 0 -- -- 73
2021-02-02 12:00:00 6.1 2 Este 6 Nordeste 0 -- -- 93
2021-02-02 11:00:00 4 0 Calma 6 Nordeste 0 -- -- 94
2021-02-02 10:00:00 2.8 0 Calma 12 Nordeste 0 -- -- 93
2021-02-02 09:00:00 3.7 4 Este 13 Este 0 -- -- 89
2021-02-02 08:00:00 2.9 3 Este 12 Nordeste 0 -- -- 94
2021-02-02 07:00:00 3.5 4 Este 12 Este 0 -- -- 93
2021-02-02 06:00:00 4 6 Nordeste 14 Este 0 -- -- 94
2021-02-02 05:00:00 5.1 2 Nordeste 5 Norte 0.1 -- -- 95
2021-02-02 04:00:00 5.1 0 Calma 9 Este 0.2 -- -- 93
2021-02-02 03:00:00 5 4 Este 9 Este 0.6 -- -- 93
2021-02-02 02:00:00 5.3 3 Este 11 Este 0.2 -- -- 92
2021-02-02 01:00:00 5.5 6 Este 12 Este 0.9 -- -- 93
2021-02-02 00:00:00 5.3 3 Nordeste 9 Este 0.6 -- -- 94
2021-02-01 23:00:00 5.6 0 Calma 13 Este 0.6 -- -- 93
2021-02-01 22:00:00 5.8 6 Este 12 Este 0.6 -- -- 94
2021-02-01 21:00:00 5.4 0 Calma 12 Nordeste 1.1 -- -- 94
2021-02-01 20:00:00 5.6 0 Calma 6 Sur 0.9 -- -- 94
2021-02-01 19:00:00 5.6 0 Calma 10 Sudoeste 1.1 -- -- 93
2021-02-01 18:00:00 5.9 4 Sudoeste 13 Sudoeste 1.1 -- -- 91
2021-02-01 17:00:00 6.8 6 Sudoeste 22 Sudoeste 0.3 -- -- 79
2021-02-01 16:00:00 6.5 6 Sudoeste 22 Sudoeste 0.4 -- -- 77
2021-02-01 15:00:00 6.6 6 Sudoeste 33 Oeste 0.3 -- -- 74
2021-02-01 14:00:00 8.3 9 Sudoeste 25 Oeste 0 -- -- 56
2021-02-01 13:00:00 -- 8 Sudoeste 22 Sur 0.1 -- -- --
2021-02-01 12:00:00 5.3 3 Sudoeste 13 Sudeste 0.2 -- -- 94
2021-02-01 11:00:00 4.1 0 Calma 8 Nordeste 0.6 -- -- 95
2021-02-01 10:00:00 3.3 0 Calma 9 Este 0.5 -- -- 94
2021-02-01 09:00:00 2.9 4 Este 8 Este 0.4 -- -- 95
2021-02-01 08:00:00 2.7 0 Calma 4 Nordeste 0.5 -- -- 96
2021-02-01 07:00:00 2.6 0 Calma 6 Este 0.3 -- -- 95
2021-02-01 06:00:00 2.8 0 Calma 5 Oeste 0.5 -- -- 95
2021-02-01 05:00:00 2.5 3 Nordeste 10 Nordeste 0.5 -- -- 94
2021-02-01 04:00:00 2.4 2 Norte 10 Este 0.7 -- -- 93
2021-02-01 03:00:00 2.4 0 Calma 9 Nordeste 1.6 -- -- 94
2021-02-01 02:00:00 2.3 5 Este 12 Este 2.1 -- -- 92
2021-02-01 01:00:00 3.5 3 Este 6 Nordeste 2.7 -- -- 94
2021-02-01 00:00:00 4 0 Calma 23 Este 2 -- -- 90